createdAt,value
2022-11-23T00:13:08.475Z,960.12
2022-11-23T00:28:10.324Z,960.16
2022-11-23T00:43:12.216Z,960.09
2022-11-23T00:58:14.053Z,959.87
2022-11-23T01:13:15.872Z,959.83
2022-11-23T01:28:17.723Z,959.7
2022-11-23T01:43:19.585Z,959.7
2022-11-23T01:58:21.534Z,959.86
2022-11-23T02:13:23.461Z,959.85
2022-11-23T02:28:25.315Z,959.92
2022-11-23T02:43:27.178Z,959.95
2022-11-23T02:58:29.126Z,960.01
2022-11-23T03:13:30.981Z,959.99
2022-11-23T03:28:32.903Z,960.16
2022-11-23T03:43:34.739Z,960.18
2022-11-23T03:58:36.589Z,960.15
2022-11-23T04:13:38.465Z,960.22
2022-11-23T04:28:40.367Z,960.38
2022-11-23T04:43:42.180Z,960.58
2022-11-23T04:58:44.188Z,960.79
2022-11-23T05:13:46.034Z,961.11
2022-11-23T05:28:47.871Z,961.38
2022-11-23T05:43:49.813Z,961.73
2022-11-23T05:58:51.671Z,961.85
2022-11-23T06:13:53.525Z,962.18
2022-11-23T06:28:55.370Z,962.42
2022-11-23T06:43:57.202Z,962.56
2022-11-23T06:58:59.055Z,962.72
2022-11-23T07:14:00.994Z,963.05
2022-11-23T07:29:02.833Z,963.42
2022-11-23T07:44:04.659Z,963.72
2022-11-23T07:59:06.525Z,964.4
2022-11-23T08:14:08.363Z,964.82
2022-11-23T08:29:10.231Z,965.06
2022-11-23T08:44:12.171Z,965.61
2022-11-23T08:59:14.071Z,965.94
2022-11-23T09:14:15.911Z,966.27
2022-11-23T09:29:17.724Z,966.59
2022-11-23T09:44:19.606Z,967.25
2022-11-23T09:59:21.446Z,967.54
2022-11-23T10:14:23.307Z,968.16
2022-11-23T10:29:25.224Z,968.55
2022-11-23T10:44:27.048Z,968.99
2022-11-23T10:59:28.898Z,969.11
2022-11-23T11:14:42.011Z,969.44
2022-11-23T11:29:44.757Z,969.65
2022-11-23T11:44:46.611Z,969.71
2022-11-23T11:59:48.516Z,970.09
2022-11-23T12:14:50.371Z,970.36
2022-11-23T12:29:52.209Z,970.31
2022-11-23T12:44:54.019Z,970.71
2022-11-23T12:59:55.886Z,971.24
2022-11-23T13:14:57.710Z,971.52
2022-11-23T13:29:59.626Z,971.38
2022-11-23T13:45:01.475Z,971.64
2022-11-23T14:00:03.340Z,972
2022-11-23T14:15:05.271Z,972.46
2022-11-23T14:30:07.101Z,972.66
2022-11-23T14:45:08.952Z,972.95
2022-11-23T15:00:12.068Z,973.32
2022-11-23T15:15:14.104Z,973.63
2022-11-23T15:30:15.954Z,973.94
2022-11-23T15:45:17.775Z,974.19
2022-11-23T16:00:19.642Z,974.56
2022-11-23T16:15:21.649Z,975.01
2022-11-23T16:30:23.604Z,975.45
2022-11-23T16:45:25.481Z,975.74
2022-11-23T17:00:27.251Z,976.06
2022-11-23T17:15:29.100Z,976.39
2022-11-23T17:30:31.011Z,976.41
2022-11-23T17:45:32.919Z,976.57
2022-11-23T18:00:34.895Z,976.99
2022-11-23T18:15:36.929Z,977.26
2022-11-23T18:30:38.950Z,977.34
2022-11-23T18:45:40.938Z,977.63
2022-11-23T19:00:42.836Z,977.7
2022-11-23T19:15:44.787Z,977.79
2022-11-23T19:30:46.800Z,977.66
2022-11-23T19:45:48.978Z,977.73
2022-11-23T20:00:50.945Z,977.68
2022-11-23T20:15:52.989Z,977.71
2022-11-23T20:30:54.984Z,977.81
2022-11-23T20:45:57.013Z,977.89
2022-11-23T21:00:58.903Z,977.98
2022-11-23T21:16:00.861Z,978.05
2022-11-23T21:31:02.833Z,978.17
2022-11-23T21:46:05.067Z,978.17
2022-11-23T22:01:07.112Z,978.24
2022-11-23T22:16:09.177Z,978.35
2022-11-23T22:31:11.215Z,978.22
2022-11-23T22:46:13.279Z,978.18
2022-11-23T23:01:15.263Z,978.54
2022-11-23T23:16:17.296Z,978.54
2022-11-23T23:31:19.244Z,978.52
2022-11-23T23:46:21.217Z,978.86
